Time;durP1;ratioP1;P1;durP2;ratioP2;P2;SDS_P1;SDS_P2;PMS_P1;PMS_P2;Temp;Humidity;BMP_temperature;BMP_pressure;BME280_temperature;BME280_humidity;BME280_pressure;Samples;Min_cycle;Max_cycle;Signal;HPM_P1;HPM_P2
2023/05/30 00:01:20;;;;;;;0.57;0.45;;;;;;;15.99;67.75;101701.72;5046270;28;20039;-59
2023/05/30 00:03:47;;;;;;;0.85;0.43;;;;;;;16.03;68.13;101709.91;5060914;28;20111;-58
2023/05/30 00:06:14;;;;;;;0.32;0.32;;;;;;;16.11;67.80;101709.69;5048027;28;20576;-59
2023/05/30 00:08:43;;;;;;;1.05;0.60;;;;;;;16.14;67.54;101705.44;5050146;28;20043;-58
2023/05/30 00:11:13;;;;;;;1.20;0.60;;;;;;;16.12;68.09;101703.06;5044789;28;20650;-59
2023/05/30 00:13:42;;;;;;;0.98;0.65;;;;;;;16.02;68.53;101703.72;5050524;28;20037;-59
2023/05/30 00:16:09;;;;;;;0.65;0.65;;;;;;;16.05;68.51;101696.75;5049898;28;20044;-59
2023/05/30 00:18:37;;;;;;;1.60;0.70;;;;;;;16.03;68.31;101705.28;5046890;28;20030;-58
2023/05/30 00:21:07;;;;;;;3.58;0.88;;;;;;;16.04;68.04;101692.47;5050461;28;20040;-59
2023/05/30 00:23:53;;;;;;;1.52;0.90;;;;;;;15.97;68.53;101701.31;5046159;28;20108;-60
2023/05/30 00:26:19;;;;;;;1.30;0.90;;;;;;;15.80;69.56;101696.38;4987108;28;20125;-59
2023/05/30 00:28:51;;;;;;;1.15;0.43;;;;;;;15.73;69.80;101696.28;4985992;28;20061;-59
2023/05/30 00:31:19;;;;;;;0.40;0.40;;;;;;;15.55;70.08;101706.06;4971353;28;20057;-61
2023/05/30 00:33:45;;;;;;;1.48;0.40;;;;;;;15.60;70.45;101703.03;4982449;28;20455;-59
2023/05/30 00:36:11;;;;;;;0.70;0.68;;;;;;;15.57;70.57;101705.69;4988219;28;20065;-59
2023/05/30 00:38:36;;;;;;;1.23;0.45;;;;;;;15.67;70.09;101700.44;4994789;28;20523;-58
2023/05/30 00:41:02;;;;;;;0.43;0.30;;;;;;;15.60;70.39;101702.25;4972544;28;20117;-59
2023/05/30 00:43:28;;;;;;;1.70;0.35;;;;;;;15.48;70.96;101705.94;4989096;28;20529;-59
2023/05/30 00:45:54;;;;;;;0.60;0.60;;;;;;;15.58;70.20;101699.88;4979541;28;20507;-58
2023/05/30 00:48:40;;;;;;;3.97;0.47;;;;;;;15.64;70.45;101703.09;4970671;28;20023;-58
2023/05/30 00:51:09;;;;;;;5.28;0.95;;;;;;;15.55;70.12;101692.47;4914676;29;20076;-57
2023/05/30 00:53:35;;;;;;;2.92;0.40;;;;;;;15.42;71.39;101701.16;4909971;29;20566;-58
2023/05/30 00:56:00;;;;;;;0.22;0.22;;;;;;;15.47;70.70;101690.78;4909301;29;20048;-55
2023/05/30 00:58:26;;;;;;;1.17;0.60;;;;;;;15.47;71.28;101679.13;4911780;29;20604;-57
2023/05/30 01:00:53;;;;;;;1.13;0.47;;;;;;;15.53;71.40;101692.06;4905448;29;20044;-58
2023/05/30 01:03:22;;;;;;;1.38;0.80;;;;;;;15.57;70.77;101676.59;4933167;28;20130;-58
2023/05/30 01:05:48;;;;;;;0.77;0.77;;;;;;;15.52;70.83;101678.84;4947575;29;20062;-58
2023/05/30 01:08:14;;;;;;;0.90;0.70;;;;;;;15.51;70.69;101685.41;4945572;29;20206;-58
2023/05/30 01:10:39;;;;;;;0.85;0.50;;;;;;;15.50;70.48;101695.50;4944806;28;20654;-59
2023/05/30 01:14:10;;;;;;;1.08;0.43;;;;;;;15.41;71.38;101691.44;4926089;29;20070;-59
2023/05/30 01:16:50;;;;;;;0.77;0.55;;;;;;;15.31;71.47;101693.56;4899346;29;20133;-58
2023/05/30 01:19:23;;;;;;;1.73;0.70;;;;;;;15.16;72.12;101694.47;4925755;28;20031;-59
2023/05/30 01:21:59;;;;;;;1.02;0.60;;;;;;;15.16;72.36;101694.47;4923824;29;20051;-59
2023/05/30 01:24:36;;;;;;;3.50;0.68;;;;;;;15.21;72.07;101704.25;4929987;29;20522;-59
2023/05/30 01:27:04;;;;;;;3.88;0.20;;;;;;;15.22;71.60;101698.47;4926433;28;20485;-59
2023/05/30 01:29:32;;;;;;;1.23;1.10;;;;;;;15.18;71.86;101697.59;5048043;28;20029;-59
2023/05/30 01:31:58;;;;;;;0.77;0.40;;;;;;;15.17;71.45;101708.84;5031853;28;20029;-59
2023/05/30 01:34:24;;;;;;;0.10;0.10;;;;;;;15.13;71.91;101708.78;5040624;28;20060;-57
2023/05/30 01:36:50;;;;;;;5.05;1.08;;;;;;;15.00;72.26;101706.56;5050444;28;20032;-58
2023/05/30 01:39:16;;;;;;;0.32;0.28;;;;;;;15.05;72.61;101706.28;5028023;28;20037;-60
2023/05/30 01:41:53;;;;;;;0.82;0.50;;;;;;;15.02;72.58;101709.72;5031431;28;20411;-59
2023/05/30 01:44:30;;;;;;;0.38;0.25;;;;;;;15.08;72.26;101719.09;5015416;28;20033;-60
2023/05/30 01:47:14;;;;;;;2.42;0.70;;;;;;;14.74;73.17;101730.81;5030565;28;20041;-57
2023/05/30 01:49:55;;;;;;;3.30;0.50;;;;;;;14.89;72.90;101724.53;5036029;28;20099;-60
2023/05/30 01:52:28;;;;;;;1.50;0.57;;;;;;;14.91;72.83;101731.19;5025852;28;20041;-60
2023/05/30 01:54:58;;;;;;;1.10;0.73;;;;;;;14.84;73.29;101727.56;5031073;28;20025;-59
2023/05/30 01:57:25;;;;;;;0.47;0.47;;;;;;;14.87;72.90;101726.81;5030474;28;20055;-59
2023/05/30 01:59:52;;;;;;;4.20;0.70;;;;;;;14.68;73.57;101734.94;5030869;28;20041;-59
2023/05/30 02:02:17;;;;;;;0.22;0.22;;;;;;;14.59;73.90;101728.97;5031032;28;20447;-59
2023/05/30 02:04:43;;;;;;;0.40;0.40;;;;;;;14.62;73.81;101726.31;5026605;28;20066;-59
2023/05/30 02:07:08;;;;;;;6.57;0.38;;;;;;;14.55;74.40;101736.22;5030987;28;20161;-59
2023/05/30 02:09:34;;;;;;;0.65;0.32;;;;;;;14.56;73.98;101740.50;5030540;28;20036;-60
2023/05/30 02:12:01;;;;;;;0.77;0.40;;;;;;;14.46;74.58;101737.22;5042785;28;20120;-59
2023/05/30 02:14:27;;;;;;;2.03;0.38;;;;;;;14.44;74.72;101733.28;5030292;28;20032;-59
2023/05/30 02:16:54;;;;;;;1.40;0.38;;;;;;;14.48;74.38;101734.94;5047230;28;20025;-59
2023/05/30 02:19:20;;;;;;;4.57;0.82;;;;;;;14.44;74.40;101734.06;5029661;28;20511;-59
2023/05/30 02:21:45;;;;;;;1.02;0.60;;;;;;;14.38;74.28;101735.47;5048608;28;20120;-59
2023/05/30 02:24:12;;;;;;;2.28;0.20;;;;;;;14.37;74.69;101739.34;5036720;28;20112;-57
2023/05/30 02:26:37;;;;;;;0.55;0.45;;;;;;;14.37;74.64;101743.97;5028906;28;20029;-59
2023/05/30 02:29:03;;;;;;;0.50;0.25;;;;;;;14.41;74.37;101750.25;5047331;28;20028;-60
2023/05/30 02:31:29;;;;;;;0.43;0.40;;;;;;;14.37;74.18;101749.38;5028159;28;20029;-59
2023/05/30 02:33:55;;;;;;;1.48;1.33;;;;;;;14.36;74.20;101754.00;5033644;28;20032;-60
2023/05/30 02:36:20;;;;;;;0.43;0.43;;;;;;;14.32;74.43;101747.72;5054141;28;20044;-60
2023/05/30 02:38:46;;;;;;;1.58;0.52;;;;;;;14.29;74.60;101750.34;5033345;28;20517;-59
2023/05/30 02:41:11;;;;;;;1.20;0.80;;;;;;;14.25;75.00;101749.47;5033518;28;20487;-59
2023/05/30 02:43:39;;;;;;;3.20;0.40;;;;;;;14.29;74.93;101744.94;5036572;28;20036;-59
2023/05/30 02:46:06;;;;;;;1.27;0.55;;;;;;;14.27;74.05;101742.59;5036545;28;20080;-59
2023/05/30 02:48:34;;;;;;;5.10;0.50;;;;;;;14.23;74.68;101749.03;5032163;28;20031;-58
2023/05/30 02:51:00;;;;;;;0.65;0.65;;;;;;;14.17;74.82;101751.22;5027167;28;20111;-59
2023/05/30 02:53:25;;;;;;;1.70;0.68;;;;;;;14.19;74.92;101751.66;5028166;28;20033;-59
2023/05/30 02:55:56;;;;;;;1.05;0.80;;;;;;;14.16;75.26;101760.50;5030209;28;20693;-58
2023/05/30 02:58:40;;;;;;;0.52;0.50;;;;;;;14.05;75.38;101748.59;5047986;28;20067;-58
2023/05/30 03:01:28;;;;;;;1.85;0.55;;;;;;;14.02;76.16;101756.66;5033630;28;20041;-56
2023/05/30 03:03:54;;;;;;;0.35;0.30;;;;;;;13.93;76.20;101751.44;5028886;28;20032;-59
2023/05/30 03:06:31;;;;;;;5.57;0.38;;;;;;;13.94;76.62;101758.41;5028853;28;20033;-58
2023/05/30 03:09:21;;;;;;;0.55;0.47;;;;;;;13.97;76.23;101756.94;5031459;28;20112;-60
2023/05/30 03:11:48;;;;;;;0.20;0.20;;;;;;;14.00;76.21;101751.59;5020101;28;20491;-58
2023/05/30 03:14:13;;;;;;;0.30;0.30;;;;;;;13.91;76.04;101761.03;5016198;28;20115;-60
2023/05/30 03:16:42;;;;;;;0.57;0.40;;;;;;;14.00;76.19;101762.44;5030390;28;20033;-59
2023/05/30 03:19:08;;;;;;;1.38;0.60;;;;;;;14.09;75.50;101754.91;5030787;28;20063;-59
2023/05/30 03:21:36;;;;;;;4.22;1.23;;;;;;;14.05;75.89;101764.09;5054478;28;20112;-55
2023/05/30 03:24:02;;;;;;;1.20;0.52;;;;;;;14.02;75.86;101757.44;5046254;28;20111;-60
2023/05/30 03:26:31;;;;;;;0.95;0.47;;;;;;;13.91;76.22;101755.63;5035993;28;20029;-59
2023/05/30 03:28:57;;;;;;;0.60;0.60;;;;;;;13.99;76.40;101765.50;5050169;28;20032;-60
2023/05/30 03:31:25;;;;;;;1.80;0.28;;;;;;;13.87;76.28;101758.25;5033844;28;20025;-59
2023/05/30 03:33:52;;;;;;;0.40;0.40;;;;;;;13.89;75.93;101771.41;5028659;28;20669;-60
2023/05/30 03:36:20;;;;;;;5.57;0.40;;;;;;;13.86;76.53;101772.91;5037828;28;20550;-58
2023/05/30 03:38:47;;;;;;;0.25;0.22;;;;;;;13.83;76.93;101772.81;5033520;28;20082;-61
2023/05/30 03:41:12;;;;;;;1.75;0.63;;;;;;;13.86;77.23;101777.56;5023918;28;20033;-58
2023/05/30 03:43:38;;;;;;;0.47;0.30;;;;;;;13.92;76.67;101785.06;5030540;28;20423;-59
2023/05/30 03:46:04;;;;;;;2.25;0.70;;;;;;;13.93;76.85;101786.63;5032417;28;20041;-60
2023/05/30 03:48:30;;;;;;;1.02;0.47;;;;;;;13.99;76.66;101787.94;5033602;28;20075;-60
2023/05/30 03:50:55;;;;;;;2.20;0.95;;;;;;;14.04;76.17;101787.69;5037763;28;20508;-57
2023/05/30 03:53:21;;;;;;;0.30;0.30;;;;;;;14.09;76.54;101792.06;5036255;28;20039;-57
2023/05/30 03:55:47;;;;;;;0.43;0.17;;;;;;;14.01;77.14;101780.25;5015943;28;20129;-60
2023/05/30 03:58:12;;;;;;;0.57;0.50;;;;;;;14.08;77.49;101787.75;5055984;28;20016;-59
2023/05/30 04:00:38;;;;;;;4.60;0.95;;;;;;;14.18;76.50;101801.56;5034523;28;20785;-58
2023/05/30 04:03:03;;;;;;;0.22;0.20;;;;;;;14.13;77.80;101803.78;5029769;28;20036;-59
2023/05/30 04:05:29;;;;;;;1.38;0.60;;;;;;;14.27;77.17;101798.66;5022407;28;20048;-60
2023/05/30 04:07:54;;;;;;;0.90;0.50;;;;;;;14.43;76.54;101802.19;5032619;28;20032;-60
2023/05/30 04:10:20;;;;;;;0.50;0.50;;;;;;;14.52;76.19;101799.31;5045291;28;20021;-58
2023/05/30 04:12:45;;;;;;;1.88;0.55;;;;;;;14.57;75.63;101801.72;5032097;28;20052;-58
2023/05/30 04:15:11;;;;;;;0.40;0.40;;;;;;;14.70;75.20;101800.47;5034223;28;20028;-60
2023/05/30 04:17:37;;;;;;;1.02;0.52;;;;;;;14.67;74.97;101801.97;5051130;28;20093;-59
2023/05/30 04:20:08;;;;;;;0.50;0.50;;;;;;;14.66;74.91;101805.81;5032104;28;20518;-59
2023/05/30 04:22:35;;;;;;;1.40;0.75;;;;;;;14.63;75.04;101798.41;5021062;28;20032;-59
2023/05/30 04:25:01;;;;;;;0.47;0.47;;;;;;;14.60;75.36;101801.00;5038862;28;20351;-58
2023/05/30 04:27:27;;;;;;;0.30;0.30;;;;;;;14.64;75.31;101797.25;5058248;28;20036;-59
2023/05/30 04:29:53;;;;;;;2.15;1.13;;;;;;;14.76;75.00;101805.28;5034121;28;20029;-59
2023/05/30 04:32:20;;;;;;;0.85;0.60;;;;;;;14.83;75.01;101799.19;5027817;28;20052;-58
2023/05/30 04:34:46;;;;;;;0.40;0.30;;;;;;;14.89;74.81;101811.34;5033606;28;20482;-58
2023/05/30 04:37:17;;;;;;;0.57;0.57;;;;;;;14.97;74.92;101805.72;5030781;28;20083;-58
2023/05/30 04:39:44;;;;;;;1.00;0.50;;;;;;;15.01;75.34;101809.31;5039490;28;20031;-58
2023/05/30 04:42:10;;;;;;;1.80;0.30;;;;;;;15.12;74.84;101801.38;5041841;28;20511;-59
2023/05/30 04:44:37;;;;;;;0.93;0.50;;;;;;;15.21;75.01;101810.88;5038945;28;20072;-59
2023/05/30 04:47:08;;;;;;;1.15;0.60;;;;;;;15.30;74.68;101810.66;5028351;28;20087;-58
2023/05/30 04:49:34;;;;;;;0.55;0.40;;;;;;;15.33;73.91;101807.22;5043495;28;20064;-58
2023/05/30 04:52:00;;;;;;;1.33;0.43;;;;;;;15.39;73.47;101816.66;5029953;28;20098;-59
2023/05/30 04:54:27;;;;;;;0.80;0.68;;;;;;;15.48;73.07;101814.53;5047865;28;20047;-60
2023/05/30 04:57:13;;;;;;;1.08;0.45;;;;;;;15.39;72.63;101816.66;5043006;22;20025;-66
2023/05/30 04:59:39;;;;;;;2.45;0.90;;;;;;;15.42;72.91;101815.97;4974861;28;20058;-66
2023/05/30 05:02:05;;;;;;;0.40;0.40;;;;;;;15.46;72.98;101816.84;4991512;28;20033;-65
2023/05/30 05:04:52;;;;;;;0.82;0.65;;;;;;;15.50;73.10;101814.19;4962268;28;20482;-66
2023/05/30 05:07:18;;;;;;;0.65;0.57;;;;;;;15.47;73.09;101823.03;4949928;28;20058;-66
2023/05/30 05:09:44;;;;;;;1.67;0.82;;;;;;;15.59;72.72;101826.38;4937324;29;20039;-68
2023/05/30 05:12:10;;;;;;;1.02;0.65;;;;;;;15.64;71.94;101831.50;4953852;28;20079;-67
2023/05/30 05:14:36;;;;;;;4.95;0.60;;;;;;;15.55;72.14;101825.53;4944429;28;20039;-64
2023/05/30 05:17:01;;;;;;;1.65;0.60;;;;;;;15.55;71.38;101833.69;4943512;28;20047;-65
2023/05/30 05:19:26;;;;;;;2.75;1.58;;;;;;;15.54;71.68;101837.56;4948291;28;20126;-67
2023/05/30 05:21:52;;;;;;;2.97;1.02;;;;;;;15.56;72.50;101842.63;4943580;28;20078;-66
2023/05/30 05:24:17;;;;;;;1.20;0.57;;;;;;;15.63;72.54;101834.59;4941629;28;20464;-65
2023/05/30 05:26:43;;;;;;;0.98;0.63;;;;;;;15.62;72.92;101841.94;4951060;28;20152;-66
2023/05/30 05:29:09;;;;;;;1.42;0.45;;;;;;;15.65;73.13;101843.97;4928425;28;20540;-67
2023/05/30 05:31:34;;;;;;;0.47;0.47;;;;;;;15.71;73.26;101844.44;4945837;28;20093;-67
2023/05/30 05:34:00;;;;;;;1.85;1.20;;;;;;;15.77;72.52;101846.53;4952292;28;20050;-67
2023/05/30 05:36:25;;;;;;;3.22;0.50;;;;;;;15.77;72.35;101857.38;4948656;28;20061;-67
2023/05/30 05:38:50;;;;;;;1.70;0.88;;;;;;;15.79;72.14;101857.81;4945930;28;20051;-66
2023/05/30 05:41:16;;;;;;;1.42;0.93;;;;;;;15.79;72.05;101855.09;4954993;28;20488;-67
2023/05/30 05:43:41;;;;;;;6.15;1.20;;;;;;;15.79;71.81;101854.31;4985821;28;20058;-66
2023/05/30 05:46:07;;;;;;;0.57;0.57;;;;;;;15.78;71.74;101850.00;5040773;28;20116;-67
2023/05/30 05:48:32;;;;;;;2.08;0.60;;;;;;;15.74;72.55;101855.38;5048348;28;20067;-66
2023/05/30 05:50:58;;;;;;;1.08;0.80;;;;;;;15.80;72.62;101853.16;5027229;28;20044;-66
2023/05/30 05:53:23;;;;;;;1.98;1.00;;;;;;;15.92;72.60;101856.50;5038681;28;20033;-66
2023/05/30 05:55:49;;;;;;;1.17;0.80;;;;;;;15.90;72.83;101858.00;5041260;28;20033;-67
2023/05/30 05:58:14;;;;;;;2.53;1.10;;;;;;;15.89;72.72;101862.63;5046001;28;20444;-66
2023/05/30 06:00:40;;;;;;;1.40;0.50;;;;;;;15.97;72.06;101853.47;5016704;28;20041;-67
2023/05/30 06:03:05;;;;;;;1.95;0.52;;;;;;;15.97;71.98;101860.84;5049767;28;20397;-67
2023/05/30 06:05:31;;;;;;;1.08;0.85;;;;;;;15.96;72.24;101872.88;5044404;28;20132;-66
2023/05/30 06:07:58;;;;;;;0.40;0.40;;;;;;;15.95;72.48;101866.63;5040603;28;20026;-67
2023/05/30 06:10:27;;;;;;;1.95;0.60;;;;;;;16.02;72.17;101855.13;5045619;28;20037;-67
2023/05/30 06:12:53;;;;;;;4.38;1.08;;;;;;;16.09;71.96;101866.91;5046263;28;20386;-67
2023/05/30 06:15:18;;;;;;;0.55;0.32;;;;;;;16.10;72.25;101867.69;5045653;28;20036;-66
2023/05/30 06:17:43;;;;;;;0.57;0.52;;;;;;;16.07;72.26;101863.75;5048632;28;20101;-67
2023/05/30 06:20:09;;;;;;;3.33;1.30;;;;;;;16.13;71.76;101864.22;5046680;28;20075;-66
2023/05/30 06:22:35;;;;;;;0.52;0.45;;;;;;;16.24;71.27;101857.81;5026412;28;20033;-67
2023/05/30 06:25:01;;;;;;;3.45;0.60;;;;;;;16.31;71.25;101868.03;5044869;28;20032;-66
2023/05/30 06:27:26;;;;;;;0.90;0.80;;;;;;;16.41;70.66;101861.22;5041239;28;20040;-67
2023/05/30 06:29:54;;;;;;;1.55;0.47;;;;;;;16.46;70.93;101861.69;5048639;28;20032;-67
2023/05/30 06:32:40;;;;;;;0.50;0.40;;;;;;;16.62;70.26;101862.38;5033516;28;20087;-67
2023/05/30 06:35:06;;;;;;;1.55;0.50;;;;;;;16.64;70.36;101867.44;5004374;28;20046;-67
2023/05/30 06:37:52;;;;;;;2.58;1.05;;;;;;;16.76;69.67;101878.88;5000622;28;20507;-65
2023/05/30 06:40:18;;;;;;;0.60;0.50;;;;;;;16.75;68.73;101879.25;4902105;29;20044;-67
2023/05/30 06:42:43;;;;;;;1.00;0.90;;;;;;;16.85;68.90;101878.63;4911806;29;20201;-65
2023/05/30 06:45:09;;;;;;;0.98;0.47;;;;;;;16.95;68.75;101881.53;4912954;29;20076;-66
2023/05/30 06:47:34;;;;;;;4.13;0.93;;;;;;;17.20;67.68;101875.63;4912463;29;20225;-67
2023/05/30 06:49:59;;;;;;;1.17;0.85;;;;;;;17.03;70.05;101882.41;4914768;29;20169;-65
2023/05/30 06:52:25;;;;;;;0.90;0.57;;;;;;;17.19;68.27;101879.50;4909708;29;20452;-65
2023/05/30 06:54:50;;;;;;;0.52;0.50;;;;;;;17.17;68.14;101885.28;4919947;29;20040;-66
2023/05/30 06:57:16;;;;;;;2.22;0.40;;;;;;;17.17;67.72;101880.63;4904792;29;20515;-68
2023/05/30 06:59:41;;;;;;;3.78;1.20;;;;;;;17.28;67.49;101882.72;4913919;29;20066;-66
2023/05/30 07:02:07;;;;;;;0.85;0.77;;;;;;;17.25;67.81;101881.50;4911416;29;20047;-65
2023/05/30 07:04:32;;;;;;;0.82;0.52;;;;;;;17.10;67.26;101877.84;4918909;29;20047;-64
2023/05/30 07:06:58;;;;;;;1.33;0.77;;;;;;;17.15;68.28;101873.97;4914096;29;20083;-65
2023/05/30 07:09:24;;;;;;;1.02;0.68;;;;;;;17.15;69.03;101879.44;4919240;29;20115;-67
2023/05/30 07:11:51;;;;;;;2.10;0.73;;;;;;;17.18;68.79;101884.16;4923445;29;20732;-66
2023/05/30 07:14:17;;;;;;;2.47;0.40;;;;;;;17.12;69.01;101880.19;4930704;29;20035;-65
2023/05/30 07:16:42;;;;;;;1.05;0.60;;;;;;;17.14;69.16;101884.13;4963481;28;20089;-65
2023/05/30 07:19:08;;;;;;;0.47;0.47;;;;;;;17.13;68.42;101890.69;5040376;28;20056;-66
2023/05/30 07:21:33;;;;;;;0.73;0.73;;;;;;;17.24;68.35;101898.22;5043931;28;20063;-64
2023/05/30 07:24:02;;;;;;;1.88;1.20;;;;;;;17.36;67.78;101898.00;5029901;28;20097;-65
2023/05/30 07:26:27;;;;;;;0.88;0.88;;;;;;;17.31;67.33;101893.66;5028997;28;20035;-66
2023/05/30 07:28:53;;;;;;;2.33;0.82;;;;;;;17.29;67.82;101901.41;5044301;28;20604;-65
2023/05/30 07:31:18;;;;;;;0.70;0.50;;;;;;;17.42;68.06;101899.25;5050953;28;20033;-66
2023/05/30 07:33:44;;;;;;;2.75;0.70;;;;;;;17.39;68.10;101900.78;5045906;28;20528;-66
2023/05/30 07:36:10;;;;;;;0.82;0.80;;;;;;;17.33;67.79;101899.53;5053821;28;20120;-68
2023/05/30 07:38:36;;;;;;;1.70;0.95;;;;;;;17.35;66.49;101902.66;5030284;28;20033;-66
2023/05/30 07:41:04;;;;;;;1.80;0.77;;;;;;;17.46;66.17;101905.53;5042135;28;20037;-66
2023/05/30 07:43:29;;;;;;;1.67;0.55;;;;;;;17.46;66.38;101895.41;5039393;28;20126;-64
2023/05/30 07:46:15;;;;;;;1.23;0.63;;;;;;;17.50;66.18;101890.81;5029153;28;20069;-67
2023/05/30 07:48:40;;;;;;;0.95;0.73;;;;;;;17.60;65.97;101901.06;4974353;28;20082;-66
2023/05/30 07:51:08;;;;;;;1.55;0.77;;;;;;;17.62;65.71;101906.91;4965312;28;20067;-67
2023/05/30 07:53:34;;;;;;;2.35;0.50;;;;;;;17.57;64.93;101907.25;4963184;28;20053;-66
2023/05/30 07:55:59;;;;;;;2.33;0.70;;;;;;;17.54;64.31;101921.59;4981469;28;20046;-66
2023/05/30 07:58:25;;;;;;;2.80;0.70;;;;;;;17.59;63.98;101907.69;4962333;28;20043;-67
2023/05/30 08:00:50;;;;;;;0.60;0.38;;;;;;;17.85;63.35;101913.03;4968649;28;20042;-67
2023/05/30 08:03:16;;;;;;;1.35;0.50;;;;;;;17.85;62.44;101904.06;4972836;28;20150;-66
2023/05/30 08:05:41;;;;;;;0.47;0.47;;;;;;;17.81;63.24;101912.19;4962896;28;20126;-68
2023/05/30 08:08:07;;;;;;;2.08;0.57;;;;;;;17.93;63.22;101914.69;4966108;28;20039;-67
2023/05/30 08:10:33;;;;;;;1.33;0.50;;;;;;;17.78;63.64;101912.97;4974576;28;20126;-66
2023/05/30 08:12:58;;;;;;;1.77;0.70;;;;;;;17.88;64.28;101897.88;4965254;28;20043;-66
2023/05/30 08:15:24;;;;;;;1.15;0.50;;;;;;;17.92;64.43;101915.06;4960487;28;20085;-67
2023/05/30 08:17:50;;;;;;;2.20;0.40;;;;;;;17.86;65.31;101900.19;4966796;28;20121;-67
2023/05/30 08:20:16;;;;;;;2.88;0.82;;;;;;;17.83;64.79;101904.44;4950345;28;20173;-65
2023/05/30 08:22:41;;;;;;;1.85;0.60;;;;;;;17.89;64.78;101908.41;4959572;28;20045;-65
2023/05/30 08:25:10;;;;;;;1.50;0.65;;;;;;;17.78;64.69;101909.44;4988976;28;20556;-66
2023/05/30 08:27:37;;;;;;;2.55;0.95;;;;;;;17.76;64.52;101896.19;5044004;28;20041;-67
2023/05/30 08:30:04;;;;;;;1.38;0.70;;;;;;;17.63;65.02;101905.78;5026297;28;20033;-66
2023/05/30 08:32:30;;;;;;;0.60;0.60;;;;;;;17.64;64.92;101904.59;5047545;28;20033;-66
2023/05/30 08:34:55;;;;;;;1.55;0.60;;;;;;;17.80;64.77;101905.19;5040747;28;20390;-67
2023/05/30 08:37:21;;;;;;;1.27;0.80;;;;;;;17.92;65.43;101913.09;5043599;28;20049;-66
2023/05/30 08:39:46;;;;;;;0.75;0.50;;;;;;;17.91;64.86;101905.28;5029244;28;20409;-67
2023/05/30 08:42:15;;;;;;;1.10;0.70;;;;;;;17.79;64.00;101917.25;5046874;28;20480;-66
2023/05/30 08:44:41;;;;;;;2.58;0.50;;;;;;;17.80;63.80;101909.84;5050059;28;20032;-67
2023/05/30 08:47:12;;;;;;;0.52;0.35;;;;;;;17.85;63.75;101914.97;5041763;28;20542;-66
2023/05/30 08:49:40;;;;;;;;;;;;;;;18.01;64.13;101927.22;5050160;28;20028;-66
2023/05/30 08:52:06;;;;;;;3.22;0.45;;;;;;;17.79;64.39;101919.97;5048638;28;19913;-65
2023/05/30 08:54:47;;;;;;;1.88;0.82;;;;;;;17.88;63.86;101912.28;5043970;28;20404;-67
2023/05/30 08:57:26;;;;;;;1.50;0.50;;;;;;;18.20;64.21;101920.78;5029444;28;20037;-66
2023/05/30 08:59:53;;;;;;;1.33;0.70;;;;;;;18.36;64.25;101926.78;5044319;28;20036;-69
2023/05/30 09:02:22;;;;;;;1.17;0.50;;;;;;;18.45;63.61;101921.81;5045337;28;20567;-66
2023/05/30 09:04:50;;;;;;;0.60;0.52;;;;;;;18.50;63.07;101926.94;5051834;28;20035;-67
2023/05/30 09:07:16;;;;;;;2.70;0.93;;;;;;;18.53;62.73;101915.28;5055203;28;20033;-66
2023/05/30 09:10:02;;;;;;;0.68;0.35;;;;;;;18.68;61.64;101929.81;5055465;28;20040;-66
2023/05/30 09:12:29;;;;;;;0.45;0.43;;;;;;;18.72;62.06;101930.63;5032236;28;20038;-66
2023/05/30 09:14:54;;;;;;;0.75;0.68;;;;;;;18.78;63.01;101938.09;5031610;28;20505;-66
2023/05/30 09:17:20;;;;;;;0.73;0.40;;;;;;;18.95;62.15;101936.63;5032903;28;20048;-66
2023/05/30 09:19:46;;;;;;;0.77;0.40;;;;;;;18.86;63.04;101939.72;5034589;28;20050;-68
2023/05/30 09:22:13;;;;;;;0.50;0.45;;;;;;;18.88;61.93;101936.59;5009529;28;20041;-66
2023/05/30 09:25:00;;;;;;;0.52;0.35;;;;;;;18.99;62.04;101931.22;5009829;28;20084;-66
2023/05/30 09:27:28;;;;;;;1.67;0.70;;;;;;;19.16;61.81;101933.28;5027339;28;20048;-66
2023/05/30 09:29:54;;;;;;;1.17;0.50;;;;;;;19.10;61.90;101943.78;5025054;28;20048;-67
2023/05/30 09:32:28;;;;;;;0.50;0.40;;;;;;;19.05;61.24;101946.09;5038761;28;20032;-67
2023/05/30 09:34:56;;;;;;;1.75;0.60;;;;;;;19.21;60.69;101949.28;5008703;28;20588;-67
2023/05/30 09:37:26;;;;;;;0.63;0.50;;;;;;;19.14;60.99;101950.06;5001442;28;20488;-66
2023/05/30 09:40:10;;;;;;;3.03;0.77;;;;;;;19.00;60.83;101951.88;5022692;28;20041;-67
2023/05/30 09:42:40;;;;;;;0.70;0.50;;;;;;;18.95;61.45;101953.03;5026444;28;20509;-66
2023/05/30 09:45:08;;;;;;;0.80;0.43;;;;;;;18.91;61.51;101960.44;5029314;28;20048;-68
2023/05/30 09:47:45;;;;;;;1.20;0.90;;;;;;;19.08;61.44;101969.91;5019916;28;20038;-66
2023/05/30 09:50:12;;;;;;;1.13;0.57;;;;;;;19.03;61.81;101967.53;5044370;28;20866;-66
2023/05/30 09:52:39;;;;;;;1.05;0.60;;;;;;;19.00;61.30;101971.78;5021030;28;20123;-66
2023/05/30 09:55:06;;;;;;;1.52;0.57;;;;;;;19.04;61.54;101971.81;5049327;28;20095;-67
2023/05/30 09:57:40;;;;;;;2.97;0.60;;;;;;;19.10;61.68;101968.38;5048594;28;20453;-68
2023/05/30 10:00:10;;;;;;;3.22;0.60;;;;;;;19.06;61.68;101980.41;5038598;28;20077;-66
2023/05/30 10:02:38;;;;;;;1.27;0.75;;;;;;;19.12;61.45;101976.16;5044822;28;20040;-66
2023/05/30 10:05:04;;;;;;;1.13;0.68;;;;;;;19.19;61.53;101974.25;5056406;28;20036;-67
2023/05/30 10:07:31;;;;;;;2.92;0.93;;;;;;;19.27;61.20;101970.41;5029701;28;20039;-64
2023/05/30 10:09:57;;;;;;;1.30;0.73;;;;;;;19.14;61.39;101974.63;5049544;28;20036;-67
2023/05/30 10:12:24;;;;;;;0.50;0.47;;;;;;;19.11;61.35;101980.06;5039477;28;20059;-67
2023/05/30 10:14:50;;;;;;;0.88;0.50;;;;;;;19.13;62.04;101983.97;5043125;28;20037;-67
2023/05/30 10:17:42;;;;;;;1.38;0.70;;;;;;;19.12;61.55;101984.38;5029485;28;20094;-67
2023/05/30 10:20:11;;;;;;;1.17;0.70;;;;;;;18.93;60.87;101988.09;4982527;28;20054;-67
2023/05/30 10:22:42;;;;;;;0.98;0.65;;;;;;;19.02;61.67;101988.59;4980079;28;20141;-66
2023/05/30 10:25:08;;;;;;;2.53;0.60;;;;;;;18.95;62.41;101985.03;4979130;28;20261;-67
2023/05/30 10:27:40;;;;;;;2.10;0.90;;;;;;;18.74;62.05;101980.94;4974550;28;20045;-67
2023/05/30 10:30:07;;;;;;;0.85;0.63;;;;;;;18.68;62.33;101979.72;4970757;28;20054;-67
2023/05/30 10:32:36;;;;;;;3.13;0.77;;;;;;;18.72;63.72;101980.53;4986923;28;20624;-66
2023/05/30 10:35:08;;;;;;;3.90;1.05;;;;;;;18.69;63.64;101980.50;4984410;28;20046;-67
2023/05/30 10:37:35;;;;;;;0.73;0.30;;;;;;;18.73;62.86;101981.34;4987088;28;20058;-67
2023/05/30 10:40:30;;;;;;;1.38;0.70;;;;;;;18.68;62.14;101976.19;4989358;28;20038;-66
2023/05/30 10:43:13;;;;;;;0.50;0.38;;;;;;;18.62;61.93;101975.75;4984400;28;20042;-67
2023/05/30 10:45:52;;;;;;;0.98;0.63;;;;;;;18.50;62.61;101980.72;4974029;28;20034;-67
2023/05/30 10:48:46;;;;;;;1.10;0.55;;;;;;;18.48;63.24;101974.88;4987844;28;20557;-67
2023/05/30 10:51:13;;;;;;;0.98;0.80;;;;;;;18.52;62.83;101979.22;4982791;28;20096;-67
2023/05/30 10:53:45;;;;;;;2.15;0.70;;;;;;;18.65;63.20;101977.75;4987298;28;20038;-66
2023/05/30 10:56:37;;;;;;;0.95;0.60;;;;;;;18.83;62.31;101969.72;4992392;28;20046;-65
2023/05/30 10:59:11;;;;;;;0.75;0.65;;;;;;;18.85;63.54;101965.44;5020877;28;20580;-66
2023/05/30 11:01:38;;;;;;;2.17;0.85;;;;;;;18.92;63.62;101967.44;5056176;28;20049;-66
2023/05/30 11:04:13;;;;;;;1.33;0.82;;;;;;;19.00;62.71;101971.00;5047326;28;20547;-66
2023/05/30 11:06:45;;;;;;;1.10;0.65;;;;;;;19.12;62.86;101971.50;5039754;28;20541;-66
2023/05/30 11:09:15;;;;;;;1.23;0.95;;;;;;;19.20;62.49;101966.88;5045684;28;20025;-67
2023/05/30 11:11:45;;;;;;;1.50;0.95;;;;;;;19.20;61.78;101964.13;5059854;28;20040;-64
2023/05/30 11:14:14;;;;;;;1.63;0.57;;;;;;;19.23;62.43;101969.59;5048879;28;20568;-66
2023/05/30 11:16:59;;;;;;;6.50;0.90;;;;;;;19.14;62.63;101971.91;5032317;22;20377;-64
2023/05/30 11:19:45;;;;;;;1.10;0.60;;;;;;;19.10;62.41;101960.16;5027671;28;20444;-65
2023/05/30 11:22:13;;;;;;;1.40;0.80;;;;;;;19.18;62.21;101963.72;4986052;28;20061;-67
2023/05/30 11:24:40;;;;;;;1.25;0.70;;;;;;;19.39;61.44;101955.69;4970612;28;20133;-66
2023/05/30 11:27:14;;;;;;;1.33;0.60;;;;;;;19.47;61.77;101962.75;4958025;28;20077;-67
2023/05/30 11:29:47;;;;;;;2.15;0.60;;;;;;;19.51;61.95;101947.16;4968483;28;20061;-66
2023/05/30 11:32:17;;;;;;;1.35;0.82;;;;;;;19.36;59.00;101954.47;4961208;28;20118;-65